Terminal Aerodrome Forecast
Issued by NWS Paducah, KY

Home | Current Version | Previous Version | Text Only | Print | Product List | Glossary On
Versions: 1 2 3 4 5 6 7 8 9 10 11 12 13 14 15
000
FTUS43 KPAH 242008 AAB
TAFPAH
TAF AMD
KPAH 242008Z 2420/2518 VRB03KT P6SM VCTS SCT050CB
     FM250000 00000KT P6SM SCT200
     FM250700 00000KT 3SM BR BCFG FEW250
     FM251300 00000KT P6SM SKC
     FM251600 19003KT P6SM FEW045=

USA.gov is the U.S. government's official web portal to all federal, state and local government web resources and services.